createdAt,value
2019-02-26T00:00:49.653Z,14.47
2019-02-26T00:05:54.379Z,13.00
2019-02-26T00:11:01.186Z,340.17
2019-02-26T00:16:07.711Z,410.07
2019-02-26T00:21:10.200Z,214.87
2019-02-26T00:26:17.492Z,921.33
2019-02-26T00:36:27.117Z,194.20
2019-02-26T00:41:31.881Z,197.27
2019-02-26T00:46:36.988Z,318.70
2019-02-26T00:51:45.992Z,304.77
2019-02-26T00:57:06.463Z,329.90
2019-02-26T01:02:10.808Z,322.73
2019-02-26T01:07:14.519Z,227.43
2019-02-26T01:22:25.669Z,25.13
2019-02-26T01:27:29.295Z,19.07
2019-02-26T01:32:32.799Z,17.23
2019-02-26T01:37:36.717Z,15.83
2019-02-26T01:42:40.873Z,15.63
2019-02-26T01:47:46.271Z,13.47
2019-02-26T01:52:51.891Z,13.57
2019-02-26T01:57:58.546Z,11.80
2019-02-26T02:03:00.839Z,12.28
2019-02-26T02:08:04.865Z,12.80
2019-02-26T02:13:09.320Z,11.73
2019-02-26T02:18:13.738Z,12.00
2019-02-26T02:23:19.386Z,11.80
2019-02-26T02:28:23.869Z,11.40
2019-02-26T02:33:30.031Z,136.07
2019-02-26T02:38:36.536Z,75.37
2019-02-26T02:43:38.984Z,343.03
2019-02-26T02:48:43.305Z,494.20
2019-02-26T02:53:47.961Z,467.13
2019-02-26T03:03:57.952Z,77.10
2019-02-26T03:14:06.204Z,20.95
2019-02-26T03:19:12.127Z,15.60
2019-02-26T03:24:15.388Z,13.50
2019-02-26T03:29:18.874Z,13.50
2019-02-26T03:34:25.445Z,13.20
2019-02-26T03:39:28.687Z,10.87
2019-02-26T03:44:32.315Z,11.27
2019-02-26T03:49:35.822Z,10.10
2019-02-26T03:54:40.926Z,10.67
2019-02-26T03:59:45.308Z,10.55
2019-02-26T04:04:51.819Z,10.97
2019-02-26T04:09:55.913Z,11.17
2019-02-26T04:14:59.650Z,93.65
2019-02-26T04:20:05.592Z,46.20
2019-02-26T04:25:09.433Z,55.13
2019-02-26T04:30:13.577Z,212.93
2019-02-26T04:35:19.498Z,189.90
2019-02-26T04:40:23.132Z,160.40
2019-02-26T04:45:26.650Z,39.38
2019-02-26T04:50:33.114Z,22.70
2019-02-26T04:55:37.926Z,19.73
2019-02-26T05:00:40.877Z,16.73
2019-02-26T05:05:44.697Z,15.60
2019-02-26T05:10:49.831Z,11.43
2019-02-26T05:15:53.667Z,11.70
2019-02-26T05:20:59.177Z,9.97
2019-02-26T05:31:24.485Z,11.93
2019-02-26T05:41:32.333Z,10.87
2019-02-26T05:46:35.841Z,10.17
2019-02-26T05:51:40.024Z,10.43
2019-02-26T05:56:45.662Z,10.30
2019-02-26T06:01:50.272Z,9.83
2019-02-26T06:17:02.678Z,9.77
2019-02-26T06:22:06.283Z,10.77
2019-02-26T06:27:13.027Z,8.67
2019-02-26T06:32:15.060Z,9.53
2019-02-26T06:37:18.656Z,8.83
2019-02-26T06:42:22.317Z,8.45
2019-02-26T06:47:28.321Z,10.23
2019-02-26T06:57:55.008Z,9.98
2019-02-26T07:02:57.797Z,9.47
2019-02-26T07:13:09.301Z,9.97
2019-02-26T07:18:16.920Z,10.83
2019-02-26T07:23:18.640Z,10.00
2019-02-26T07:28:24.531Z,9.03
2019-02-26T07:33:29.750Z,10.13
2019-02-26T07:38:40.891Z,11.17
2019-02-26T07:43:41.056Z,9.40
2019-02-26T07:48:46.165Z,11.53
2019-02-26T07:53:51.655Z,9.33
2019-02-26T07:58:56.931Z,11.13
2019-02-26T08:04:00.019Z,10.33
2019-02-26T08:09:04.791Z,10.37
2019-02-26T08:14:09.334Z,9.30
2019-02-26T08:19:12.850Z,14.07
2019-02-26T08:24:17.136Z,13.40
2019-02-26T08:29:24.548Z,76.35
2019-02-26T08:34:28.421Z,114.30
2019-02-26T08:39:32.109Z,353.43
2019-02-26T08:44:35.635Z,77.03
2019-02-26T08:49:40.712Z,74.05
2019-02-26T08:54:44.611Z,38.23
2019-02-26T08:59:49.662Z,34.60
2019-02-26T09:04:53.591Z,26.50
2019-02-26T09:09:57.752Z,16.10
2019-02-26T09:15:02.032Z,17.77
2019-02-26T09:20:09.286Z,16.30
2019-02-26T09:25:11.005Z,13.40
2019-02-26T09:30:16.156Z,13.77
2019-02-26T09:35:24.601Z,14.07
2019-02-26T09:45:30.635Z,15.20
2019-02-26T09:50:36.114Z,14.87
2019-02-26T09:55:39.687Z,15.70
2019-02-26T10:00:45.599Z,14.47
2019-02-26T10:05:52.215Z,16.67
2019-02-26T10:10:54.981Z,16.10
2019-02-26T10:16:01.985Z,16.63
2019-02-26T10:21:06.749Z,17.53
2019-02-26T10:26:10.690Z,18.97
2019-02-26T10:31:14.712Z,19.60
2019-02-26T10:36:18.498Z,15.27
2019-02-26T10:41:22.280Z,16.95
2019-02-26T10:46:25.760Z,19.10
2019-02-26T10:51:29.379Z,18.80
2019-02-26T10:56:36.776Z,18.47
2019-02-26T11:01:38.352Z,20.57
2019-02-26T11:06:44.305Z,25.13
2019-02-26T11:11:47.321Z,18.80
2019-02-26T11:16:50.835Z,19.27
2019-02-26T11:21:58.113Z,19.87
2019-02-26T11:27:00.419Z,22.97
2019-02-26T11:32:05.687Z,23.90
2019-02-26T11:37:09.496Z,19.83
2019-02-26T11:42:13.322Z,19.50
2019-02-26T11:47:18.328Z,20.20
2019-02-26T11:52:21.776Z,17.57
2019-02-26T11:57:25.502Z,18.13
2019-02-26T12:12:38.596Z,19.40
2019-02-26T12:17:42.322Z,22.17
2019-02-26T12:22:47.996Z,23.10
2019-02-26T12:27:51.551Z,21.73
2019-02-26T12:32:55.234Z,22.37
2019-02-26T12:37:59.362Z,22.60
2019-02-26T12:43:06.618Z,17.60
2019-02-26T12:48:12.513Z,21.02
2019-02-26T12:53:18.048Z,20.05
2019-02-26T12:58:35.609Z,22.13
2019-02-26T13:03:42.569Z,21.90
2019-02-26T13:08:47.222Z,21.63
2019-02-26T13:13:52.598Z,22.13
2019-02-26T13:18:58.553Z,21.63
2019-02-26T13:24:09.630Z,21.50
2019-02-26T13:29:05.842Z,20.60
2019-02-26T13:49:24.674Z,18.70
2019-02-26T13:54:28.301Z,21.60
2019-02-26T13:59:31.800Z,21.03
2019-02-26T14:04:35.826Z,16.27
2019-02-26T14:09:39.437Z,18.33
2019-02-26T14:19:46.672Z,17.57
2019-02-26T14:24:50.295Z,17.10
2019-02-26T14:29:53.803Z,17.90
2019-02-26T14:34:58.649Z,13.47
2019-02-26T14:40:02.282Z,13.67
2019-02-26T14:45:05.799Z,12.97
2019-02-26T14:50:09.490Z,12.93
2019-02-26T15:00:16.629Z,12.83
2019-02-26T15:05:20.388Z,12.82
2019-02-26T15:10:23.861Z,12.40
2019-02-26T15:15:29.335Z,14.17
2019-02-26T15:20:33.061Z,20.08
2019-02-26T15:25:36.743Z,29.33
2019-02-26T15:30:40.369Z,35.27
2019-02-26T15:35:44.379Z,253.37
2019-02-26T15:40:48.125Z,256.97
2019-02-26T15:45:52.376Z,312.20
2019-02-26T15:50:56.160Z,290.07
2019-02-26T16:01:03.891Z,529.47
2019-02-26T16:06:08.126Z,254.90
2019-02-26T16:11:13.148Z,232.30
2019-02-26T16:16:20.915Z,131.13
2019-02-26T16:21:25.690Z,120.10
2019-02-26T16:26:29.788Z,84.27
2019-02-26T16:31:33.577Z,148.20
2019-02-26T16:36:37.806Z,104.72
2019-02-26T16:41:41.527Z,149.95
2019-02-26T16:46:45.753Z,154.03
2019-02-26T16:51:49.476Z,212.20
2019-02-26T16:56:54.663Z,215.50
2019-02-26T17:01:58.547Z,235.10
2019-02-26T17:12:05.683Z,42.15
2019-02-26T17:17:09.312Z,34.67
2019-02-26T17:22:12.805Z,25.90
2019-02-26T17:27:16.528Z,22.43
2019-02-26T17:37:23.658Z,20.07
2019-02-26T17:42:27.280Z,19.13
2019-02-26T17:47:30.783Z,18.40
2019-02-26T17:52:34.505Z,18.50
2019-02-26T18:02:41.628Z,17.37
2019-02-26T18:12:49.783Z,21.27
2019-02-26T18:17:53.403Z,16.73
2019-02-26T18:22:59.961Z,16.70
2019-02-26T18:28:02.382Z,16.03
2019-02-26T18:33:05.972Z,17.73
2019-02-26T18:38:09.605Z,19.40
2019-02-26T18:43:14.359Z,19.53
2019-02-26T18:48:18.577Z,18.70
2019-02-26T18:53:22.020Z,21.13
2019-02-26T18:58:25.599Z,19.00
2019-02-26T19:03:44.274Z,19.43
2019-02-26T19:08:47.792Z,19.40
2019-02-26T19:13:52.092Z,20.50
2019-02-26T19:18:55.431Z,20.62
2019-02-26T19:23:59.015Z,21.33
2019-02-26T19:29:02.660Z,19.27
2019-02-26T19:34:06.281Z,19.17
2019-02-26T19:39:09.788Z,20.90
2019-02-26T19:44:13.510Z,20.37
2019-02-26T19:54:20.633Z,19.10
2019-02-26T19:59:24.275Z,20.60
2019-02-26T20:04:27.554Z,21.20
2019-02-26T20:09:30.816Z,75.25
2019-02-26T20:14:34.969Z,159.97
2019-02-26T20:19:39.419Z,118.80
2019-02-26T20:24:43.030Z,49.57
2019-02-26T20:29:46.654Z,69.53
2019-02-26T20:34:50.278Z,156.70
2019-02-26T20:39:53.887Z,279.20
2019-02-26T20:44:59.085Z,214.60
2019-02-26T20:50:02.968Z,220.53
2019-02-26T20:55:06.678Z,97.43
2019-02-26T21:00:10.374Z,221.30
2019-02-26T21:05:14.114Z,392.30
2019-02-26T21:10:17.739Z,412.53
2019-02-26T21:15:21.460Z,981.47
2019-02-26T21:20:25.141Z,280.80
2019-02-26T21:25:28.786Z,325.43
2019-02-26T21:30:36.206Z,344.03
2019-02-26T21:35:40.922Z,147.37
2019-02-26T21:40:48.757Z,183.93
2019-02-26T21:45:51.146Z,168.10
2019-02-26T21:50:57.660Z,297.43
2019-02-26T21:56:10.728Z,201.33
2019-02-26T22:01:15.568Z,309.33
2019-02-26T22:06:32.561Z,672.73
2019-02-26T22:11:36.648Z,579.40
2019-02-26T22:16:40.374Z,631.80
2019-02-26T22:21:44.070Z,398.50
2019-02-26T22:26:47.707Z,414.80
2019-02-26T22:31:51.088Z,190.40
2019-02-26T22:36:54.728Z,118.87
2019-02-26T22:41:58.446Z,110.70
2019-02-26T22:47:02.163Z,185.78
2019-02-26T22:52:05.784Z,112.27
2019-02-26T22:57:09.508Z,192.83
2019-02-26T23:07:16.712Z,239.30
2019-02-26T23:12:20.777Z,316.17
2019-02-26T23:17:25.399Z,237.78
2019-02-26T23:22:38.417Z,386.23
2019-02-26T23:27:42.638Z,181.30
2019-02-26T23:32:58.102Z,78.07
2019-02-26T23:38:02.287Z,48.60
2019-02-26T23:43:12.528Z,36.30
2019-02-26T23:48:22.381Z,34.77
2019-02-26T23:53:33.879Z,28.77
2019-02-26T23:58:43.424Z,28.60
